sensor_id;sensor_type;location;lat;lon;timestamp;temperature;humidity
29803;DHT22;16702;50.898;4.662;2023-04-24T00:00:25;11.30;99.90
29803;DHT22;16702;50.898;4.662;2023-04-24T00:02:56;11.30;99.90
29803;DHT22;16702;50.898;4.662;2023-04-24T00:05:27;11.20;99.90
29803;DHT22;16702;50.898;4.662;2023-04-24T00:07:58;11.20;99.90
29803;DHT22;16702;50.898;4.662;2023-04-24T00:10:30;11.20;99.90
29803;DHT22;16702;50.898;4.662;2023-04-24T00:13:03;11.20;99.90
29803;DHT22;16702;50.898;4.662;2023-04-24T00:15:33;11.20;99.90
29803;DHT22;16702;50.898;4.662;2023-04-24T00:18:04;11.30;99.90
29803;DHT22;16702;50.898;4.662;2023-04-24T00:20:35;11.20;99.90
29803;DHT22;16702;50.898;4.662;2023-04-24T00:23:05;11.20;99.90
29803;DHT22;16702;50.898;4.662;2023-04-24T00:25:37;11.20;99.90
29803;DHT22;16702;50.898;4.662;2023-04-24T00:28:11;11.20;99.90
29803;DHT22;16702;50.898;4.662;2023-04-24T00:30:41;11.20;99.90
29803;DHT22;16702;50.898;4.662;2023-04-24T00:33:12;11.20;99.90
29803;DHT22;16702;50.898;4.662;2023-04-24T00:35:43;11.20;99.90
29803;DHT22;16702;50.898;4.662;2023-04-24T00:38:13;11.20;99.90
29803;DHT22;16702;50.898;4.662;2023-04-24T00:40:46;11.30;99.90
29803;DHT22;16702;50.898;4.662;2023-04-24T00:43:20;11.20;99.90
29803;DHT22;16702;50.898;4.662;2023-04-24T00:45:50;11.20;99.90
29803;DHT22;16702;50.898;4.662;2023-04-24T00:48:21;11.20;99.90
29803;DHT22;16702;50.898;4.662;2023-04-24T00:50:54;11.10;99.90
29803;DHT22;16702;50.898;4.662;2023-04-24T00:53:24;11.10;99.90
29803;DHT22;16702;50.898;4.662;2023-04-24T00:55:55;11.10;99.90
29803;DHT22;16702;50.898;4.662;2023-04-24T00:58:28;11.10;99.90
29803;DHT22;16702;50.898;4.662;2023-04-24T01:01:00;11.00;99.90
29803;DHT22;16702;50.898;4.662;2023-04-24T01:03:35;11.00;99.90
29803;DHT22;16702;50.898;4.662;2023-04-24T01:06:07;11.00;99.90
29803;DHT22;16702;50.898;4.662;2023-04-24T01:08:39;11.00;99.90
29803;DHT22;16702;50.898;4.662;2023-04-24T01:11:09;11.00;99.90
29803;DHT22;16702;50.898;4.662;2023-04-24T01:13:42;11.00;99.90
29803;DHT22;16702;50.898;4.662;2023-04-24T01:16:14;11.00;99.90
29803;DHT22;16702;50.898;4.662;2023-04-24T01:18:44;11.00;99.90
29803;DHT22;16702;50.898;4.662;2023-04-24T01:21:16;11.10;99.90
29803;DHT22;16702;50.898;4.662;2023-04-24T01:23:49;11.00;99.90
29803;DHT22;16702;50.898;4.662;2023-04-24T01:26:21;11.00;99.90
29803;DHT22;16702;50.898;4.662;2023-04-24T01:28:53;11.00;99.90
29803;DHT22;16702;50.898;4.662;2023-04-24T01:31:23;10.90;99.90
29803;DHT22;16702;50.898;4.662;2023-04-24T01:33:55;11.00;99.90
29803;DHT22;16702;50.898;4.662;2023-04-24T01:36:27;11.00;99.90
29803;DHT22;16702;50.898;4.662;2023-04-24T01:39:01;11.00;99.90
29803;DHT22;16702;50.898;4.662;2023-04-24T01:41:32;10.90;99.90
29803;DHT22;16702;50.898;4.662;2023-04-24T01:44:03;11.00;99.90
29803;DHT22;16702;50.898;4.662;2023-04-24T01:46:35;10.90;99.90
29803;DHT22;16702;50.898;4.662;2023-04-24T01:49:05;10.90;99.90
29803;DHT22;16702;50.898;4.662;2023-04-24T01:51:36;11.00;99.90
29803;DHT22;16702;50.898;4.662;2023-04-24T01:54:09;10.80;99.90
29803;DHT22;16702;50.898;4.662;2023-04-24T01:56:41;10.90;99.90
29803;DHT22;16702;50.898;4.662;2023-04-24T01:59:12;10.80;99.90
29803;DHT22;16702;50.898;4.662;2023-04-24T02:01:42;10.90;99.90
29803;DHT22;16702;50.898;4.662;2023-04-24T02:04:13;10.80;99.90
29803;DHT22;16702;50.898;4.662;2023-04-24T02:06:44;10.80;99.90
29803;DHT22;16702;50.898;4.662;2023-04-24T02:09:17;10.80;99.90
29803;DHT22;16702;50.898;4.662;2023-04-24T02:11:47;10.80;99.90
29803;DHT22;16702;50.898;4.662;2023-04-24T02:14:18;10.70;99.90
29803;DHT22;16702;50.898;4.662;2023-04-24T02:16:48;10.80;99.90
29803;DHT22;16702;50.898;4.662;2023-04-24T02:19:19;10.80;99.90
29803;DHT22;16702;50.898;4.662;2023-04-24T02:21:50;10.70;99.90
29803;DHT22;16702;50.898;4.662;2023-04-24T02:24:23;10.70;99.90
29803;DHT22;16702;50.898;4.662;2023-04-24T02:26:54;10.70;99.90
29803;DHT22;16702;50.898;4.662;2023-04-24T02:29:26;10.70;99.90
29803;DHT22;16702;50.898;4.662;2023-04-24T02:31:57;10.70;99.90
29803;DHT22;16702;50.898;4.662;2023-04-24T02:34:27;10.60;99.90
29803;DHT22;16702;50.898;4.662;2023-04-24T02:36:59;10.70;99.90
29803;DHT22;16702;50.898;4.662;2023-04-24T02:39:32;10.70;99.90
29803;DHT22;16702;50.898;4.662;2023-04-24T02:42:03;10.70;99.90
29803;DHT22;16702;50.898;4.662;2023-04-24T02:44:35;10.60;99.90
29803;DHT22;16702;50.898;4.662;2023-04-24T02:47:05;10.70;99.90
29803;DHT22;16702;50.898;4.662;2023-04-24T02:49:36;10.70;99.90
29803;DHT22;16702;50.898;4.662;2023-04-24T02:52:07;10.70;99.90
29803;DHT22;16702;50.898;4.662;2023-04-24T02:54:40;10.60;99.90
29803;DHT22;16702;50.898;4.662;2023-04-24T02:57:11;10.60;99.90
29803;DHT22;16702;50.898;4.662;2023-04-24T02:59:42;10.50;99.90
29803;DHT22;16702;50.898;4.662;2023-04-24T03:02:13;10.50;99.90
29803;DHT22;16702;50.898;4.662;2023-04-24T03:04:44;10.60;99.90
29803;DHT22;16702;50.898;4.662;2023-04-24T03:07:15;10.50;99.90
29803;DHT22;16702;50.898;4.662;2023-04-24T03:09:50;10.40;99.90
29803;DHT22;16702;50.898;4.662;2023-04-24T03:12:21;10.40;99.90
29803;DHT22;16702;50.898;4.662;2023-04-24T03:14:51;10.50;99.90
29803;DHT22;16702;50.898;4.662;2023-04-24T03:17:22;10.40;99.90
29803;DHT22;16702;50.898;4.662;2023-04-24T03:19:52;10.40;99.90
29803;DHT22;16702;50.898;4.662;2023-04-24T03:22:23;10.40;99.90
29803;DHT22;16702;50.898;4.662;2023-04-24T03:24:56;10.40;99.90
29803;DHT22;16702;50.898;4.662;2023-04-24T03:27:27;10.40;99.90
29803;DHT22;16702;50.898;4.662;2023-04-24T03:30:06;10.40;99.90
29803;DHT22;16702;50.898;4.662;2023-04-24T03:32:49;10.40;99.90
29803;DHT22;16702;50.898;4.662;2023-04-24T03:35:24;10.40;99.90
29803;DHT22;16702;50.898;4.662;2023-04-24T03:37:56;10.40;99.90
29803;DHT22;16702;50.898;4.662;2023-04-24T03:40:49;10.40;99.90
29803;DHT22;16702;50.898;4.662;2023-04-24T03:43:49;10.40;99.90
29803;DHT22;16702;50.898;4.662;2023-04-24T03:46:20;10.30;99.90
29803;DHT22;16702;50.898;4.662;2023-04-24T03:48:54;10.30;99.90
29803;DHT22;16702;50.898;4.662;2023-04-24T03:51:29;10.30;99.90
29803;DHT22;16702;50.898;4.662;2023-04-24T03:54:09;10.30;99.90
29803;DHT22;16702;50.898;4.662;2023-04-24T03:56:42;10.30;99.90
29803;DHT22;16702;50.898;4.662;2023-04-24T03:59:13;10.20;99.90
29803;DHT22;16702;50.898;4.662;2023-04-24T04:01:54;10.30;99.90
29803;DHT22;16702;50.898;4.662;2023-04-24T04:04:25;10.30;99.90
29803;DHT22;16702;50.898;4.662;2023-04-24T04:06:56;10.20;99.90
29803;DHT22;16702;50.898;4.662;2023-04-24T04:09:28;10.20;99.90
29803;DHT22;16702;50.898;4.662;2023-04-24T04:12:02;10.30;99.90
29803;DHT22;16702;50.898;4.662;2023-04-24T04:14:34;10.30;99.90
29803;DHT22;16702;50.898;4.662;2023-04-24T04:17:04;10.30;99.90
29803;DHT22;16702;50.898;4.662;2023-04-24T04:19:35;10.30;99.90
29803;DHT22;16702;50.898;4.662;2023-04-24T04:22:05;10.20;99.90
29803;DHT22;16702;50.898;4.662;2023-04-24T04:24:41;10.30;99.90
29803;DHT22;16702;50.898;4.662;2023-04-24T04:27:17;10.30;99.90
29803;DHT22;16702;50.898;4.662;2023-04-24T04:30:03;10.30;99.90
29803;DHT22;16702;50.898;4.662;2023-04-24T04:32:43;10.30;99.90
29803;DHT22;16702;50.898;4.662;2023-04-24T04:35:14;10.30;99.90
29803;DHT22;16702;50.898;4.662;2023-04-24T04:37:45;10.30;99.90
29803;DHT22;16702;50.898;4.662;2023-04-24T04:40:26;10.30;99.90
29803;DHT22;16702;50.898;4.662;2023-04-24T04:43:04;10.30;99.90
29803;DHT22;16702;50.898;4.662;2023-04-24T04:45:42;10.20;99.90
29803;DHT22;16702;50.898;4.662;2023-04-24T04:48:24;10.10;99.90
29803;DHT22;16702;50.898;4.662;2023-04-24T04:50:56;10.10;99.90
29803;DHT22;16702;50.898;4.662;2023-04-24T04:53:28;10.10;99.90
29803;DHT22;16702;50.898;4.662;2023-04-24T04:55:58;10.00;99.90
29803;DHT22;16702;50.898;4.662;2023-04-24T04:58:43;10.10;99.90
29803;DHT22;16702;50.898;4.662;2023-04-24T05:01:16;10.10;99.90
29803;DHT22;16702;50.898;4.662;2023-04-24T05:03:49;10.10;99.90
29803;DHT22;16702;50.898;4.662;2023-04-24T05:06:19;10.00;99.90
29803;DHT22;16702;50.898;4.662;2023-04-24T05:08:51;10.00;99.90
29803;DHT22;16702;50.898;4.662;2023-04-24T05:11:50;9.90;99.90
29803;DHT22;16702;50.898;4.662;2023-04-24T05:14:25;9.90;99.90
29803;DHT22;16702;50.898;4.662;2023-04-24T05:16:56;9.90;99.90
29803;DHT22;16702;50.898;4.662;2023-04-24T05:19:27;9.80;99.90
29803;DHT22;16702;50.898;4.662;2023-04-24T05:22:00;9.90;99.90
29803;DHT22;16702;50.898;4.662;2023-04-24T05:24:33;9.80;99.90
29803;DHT22;16702;50.898;4.662;2023-04-24T05:27:10;9.80;99.90
29803;DHT22;16702;50.898;4.662;2023-04-24T05:29:44;9.90;99.90
29803;DHT22;16702;50.898;4.662;2023-04-24T05:32:14;9.80;99.90
29803;DHT22;16702;50.898;4.662;2023-04-24T05:34:45;9.80;99.90
29803;DHT22;16702;50.898;4.662;2023-04-24T05:37:15;9.80;99.90
29803;DHT22;16702;50.898;4.662;2023-04-24T05:39:46;9.70;99.90
29803;DHT22;16702;50.898;4.662;2023-04-24T05:42:16;9.70;99.90
29803;DHT22;16702;50.898;4.662;2023-04-24T05:44:49;9.70;99.90
29803;DHT22;16702;50.898;4.662;2023-04-24T05:47:24;9.80;99.90
29803;DHT22;16702;50.898;4.662;2023-04-24T05:49:54;9.60;99.90
29803;DHT22;16702;50.898;4.662;2023-04-24T05:52:25;9.70;99.90
29803;DHT22;16702;50.898;4.662;2023-04-24T05:54:55;9.70;99.90
29803;DHT22;16702;50.898;4.662;2023-04-24T05:57:31;9.70;99.90
29803;DHT22;16702;50.898;4.662;2023-04-24T06:00:07;9.70;99.90
29803;DHT22;16702;50.898;4.662;2023-04-24T06:02:50;9.70;99.90
29803;DHT22;16702;50.898;4.662;2023-04-24T06:05:22;9.70;99.90
29803;DHT22;16702;50.898;4.662;2023-04-24T06:07:54;9.70;99.90
29803;DHT22;16702;50.898;4.662;2023-04-24T06:10:28;9.70;99.90
29803;DHT22;16702;50.898;4.662;2023-04-24T06:12:59;9.70;99.90
29803;DHT22;16702;50.898;4.662;2023-04-24T06:15:34;9.70;99.90
29803;DHT22;16702;50.898;4.662;2023-04-24T06:18:12;9.70;99.90
29803;DHT22;16702;50.898;4.662;2023-04-24T06:20:42;9.80;99.90
29803;DHT22;16702;50.898;4.662;2023-04-24T06:23:13;9.80;99.90
29803;DHT22;16702;50.898;4.662;2023-04-24T06:25:43;9.80;99.90
29803;DHT22;16702;50.898;4.662;2023-04-24T06:28:14;9.70;99.90
29803;DHT22;16702;50.898;4.662;2023-04-24T06:30:47;9.70;99.90
29803;DHT22;16702;50.898;4.662;2023-04-24T06:33:17;9.80;99.90
29803;DHT22;16702;50.898;4.662;2023-04-24T06:35:50;9.70;99.90
29803;DHT22;16702;50.898;4.662;2023-04-24T06:38:20;9.70;99.90
29803;DHT22;16702;50.898;4.662;2023-04-24T06:40:51;9.60;99.90
29803;DHT22;16702;50.898;4.662;2023-04-24T06:43:21;9.70;99.90
29803;DHT22;16702;50.898;4.662;2023-04-24T06:45:54;9.70;99.90
29803;DHT22;16702;50.898;4.662;2023-04-24T06:48:25;9.70;99.90
29803;DHT22;16702;50.898;4.662;2023-04-24T06:50:56;9.60;99.90
29803;DHT22;16702;50.898;4.662;2023-04-24T06:53:27;9.60;99.90
29803;DHT22;16702;50.898;4.662;2023-04-24T06:55:57;9.60;99.90
29803;DHT22;16702;50.898;4.662;2023-04-24T06:58:28;9.70;99.90
29803;DHT22;16702;50.898;4.662;2023-04-24T07:01:03;9.70;99.90
29803;DHT22;16702;50.898;4.662;2023-04-24T07:03:33;9.70;99.90
29803;DHT22;16702;50.898;4.662;2023-04-24T07:06:05;9.70;99.90
29803;DHT22;16702;50.898;4.662;2023-04-24T07:08:36;9.70;99.90
29803;DHT22;16702;50.898;4.662;2023-04-24T07:11:06;9.70;99.90
29803;DHT22;16702;50.898;4.662;2023-04-24T07:13:37;9.70;99.90
29803;DHT22;16702;50.898;4.662;2023-04-24T07:16:17;9.70;99.90
29803;DHT22;16702;50.898;4.662;2023-04-24T07:18:48;9.60;99.90
29803;DHT22;16702;50.898;4.662;2023-04-24T07:21:18;9.70;99.90
29803;DHT22;16702;50.898;4.662;2023-04-24T07:23:49;9.70;99.90
29803;DHT22;16702;50.898;4.662;2023-04-24T07:26:20;9.70;99.90
29803;DHT22;16702;50.898;4.662;2023-04-24T07:28:50;9.70;99.90
29803;DHT22;16702;50.898;4.662;2023-04-24T07:31:23;9.70;99.90
29803;DHT22;16702;50.898;4.662;2023-04-24T07:33:54;9.70;99.90
29803;DHT22;16702;50.898;4.662;2023-04-24T07:36:25;9.80;99.90
29803;DHT22;16702;50.898;4.662;2023-04-24T07:38:56;9.70;99.90
29803;DHT22;16702;50.898;4.662;2023-04-24T07:41:27;9.70;99.90
29803;DHT22;16702;50.898;4.662;2023-04-24T07:43:58;9.70;99.90
29803;DHT22;16702;50.898;4.662;2023-04-24T07:46:32;9.70;99.90
29803;DHT22;16702;50.898;4.662;2023-04-24T07:49:04;9.70;99.90
29803;DHT22;16702;50.898;4.662;2023-04-24T07:51:40;9.80;99.90
29803;DHT22;16702;50.898;4.662;2023-04-24T07:54:11;9.90;99.90
29803;DHT22;16702;50.898;4.662;2023-04-24T07:56:42;9.80;99.90
29803;DHT22;16702;50.898;4.662;2023-04-24T07:59:13;9.80;99.90
29803;DHT22;16702;50.898;4.662;2023-04-24T08:01:46;9.80;99.90
29803;DHT22;16702;50.898;4.662;2023-04-24T08:04:17;9.80;99.90
29803;DHT22;16702;50.898;4.662;2023-04-24T08:06:51;9.90;99.90
29803;DHT22;16702;50.898;4.662;2023-04-24T08:09:21;9.90;99.90
29803;DHT22;16702;50.898;4.662;2023-04-24T08:11:53;10.00;99.90
29803;DHT22;16702;50.898;4.662;2023-04-24T08:14:24;10.10;99.90
29803;DHT22;16702;50.898;4.662;2023-04-24T08:16:57;10.10;99.90
29803;DHT22;16702;50.898;4.662;2023-04-24T08:19:28;10.10;99.90
29803;DHT22;16702;50.898;4.662;2023-04-24T08:21:59;10.10;99.90
29803;DHT22;16702;50.898;4.662;2023-04-24T08:24:30;10.10;99.90
29803;DHT22;16702;50.898;4.662;2023-04-24T08:27:00;10.10;99.90
29803;DHT22;16702;50.898;4.662;2023-04-24T08:29:31;10.10;99.90
29803;DHT22;16702;50.898;4.662;2023-04-24T08:32:04;10.00;99.90
29803;DHT22;16702;50.898;4.662;2023-04-24T08:34:35;9.90;99.90
29803;DHT22;16702;50.898;4.662;2023-04-24T08:37:06;9.90;99.90
29803;DHT22;16702;50.898;4.662;2023-04-24T08:39:36;9.90;99.90
29803;DHT22;16702;50.898;4.662;2023-04-24T08:42:08;10.00;99.90
29803;DHT22;16702;50.898;4.662;2023-04-24T08:44:39;10.10;99.90
29803;DHT22;16702;50.898;4.662;2023-04-24T08:47:12;10.20;99.90
29803;DHT22;16702;50.898;4.662;2023-04-24T08:49:43;10.30;99.90
29803;DHT22;16702;50.898;4.662;2023-04-24T08:52:13;10.30;99.90
29803;DHT22;16702;50.898;4.662;2023-04-24T08:54:46;10.30;99.90
29803;DHT22;16702;50.898;4.662;2023-04-24T08:57:17;10.40;99.90
29803;DHT22;16702;50.898;4.662;2023-04-24T08:59:49;10.50;99.90
29803;DHT22;16702;50.898;4.662;2023-04-24T09:02:23;10.50;99.90
29803;DHT22;16702;50.898;4.662;2023-04-24T09:04:56;10.40;99.90
29803;DHT22;16702;50.898;4.662;2023-04-24T09:07:27;10.30;99.90
29803;DHT22;16702;50.898;4.662;2023-04-24T09:10:01;10.30;99.90
29803;DHT22;16702;50.898;4.662;2023-04-24T09:12:32;10.30;99.90
29803;DHT22;16702;50.898;4.662;2023-04-24T09:15:03;10.20;99.90
29803;DHT22;16702;50.898;4.662;2023-04-24T09:17:37;10.30;99.90
29803;DHT22;16702;50.898;4.662;2023-04-24T09:20:08;10.30;99.90
29803;DHT22;16702;50.898;4.662;2023-04-24T09:22:39;10.50;99.90
29803;DHT22;16702;50.898;4.662;2023-04-24T09:25:10;10.60;99.90
29803;DHT22;16702;50.898;4.662;2023-04-24T09:27:42;10.70;99.90
29803;DHT22;16702;50.898;4.662;2023-04-24T09:30:14;10.80;99.90
29803;DHT22;16702;50.898;4.662;2023-04-24T09:33:10;10.90;99.90
29803;DHT22;16702;50.898;4.662;2023-04-24T09:35:41;11.00;99.90
29803;DHT22;16702;50.898;4.662;2023-04-24T09:38:13;10.90;99.90
29803;DHT22;16702;50.898;4.662;2023-04-24T09:40:44;10.90;99.90
29803;DHT22;16702;50.898;4.662;2023-04-24T09:43:15;10.90;99.90
29803;DHT22;16702;50.898;4.662;2023-04-24T09:45:45;10.90;99.90
29803;DHT22;16702;50.898;4.662;2023-04-24T09:48:19;10.80;99.90
29803;DHT22;16702;50.898;4.662;2023-04-24T09:50:52;10.70;99.90
29803;DHT22;16702;50.898;4.662;2023-04-24T09:53:24;10.80;99.90
29803;DHT22;16702;50.898;4.662;2023-04-24T09:55:55;10.80;99.90
29803;DHT22;16702;50.898;4.662;2023-04-24T09:58:26;10.90;99.90
29803;DHT22;16702;50.898;4.662;2023-04-24T10:00:58;11.20;99.90
29803;DHT22;16702;50.898;4.662;2023-04-24T10:03:33;11.30;99.90
29803;DHT22;16702;50.898;4.662;2023-04-24T10:06:04;11.30;99.90
29803;DHT22;16702;50.898;4.662;2023-04-24T10:08:37;11.50;99.90
29803;DHT22;16702;50.898;4.662;2023-04-24T10:11:08;11.40;99.90
29803;DHT22;16702;50.898;4.662;2023-04-24T10:13:39;11.30;99.90
29803;DHT22;16702;50.898;4.662;2023-04-24T10:16:10;11.30;99.90
29803;DHT22;16702;50.898;4.662;2023-04-24T10:18:44;11.20;99.90
29803;DHT22;16702;50.898;4.662;2023-04-24T10:21:15;11.20;99.90
29803;DHT22;16702;50.898;4.662;2023-04-24T10:23:46;11.20;99.90
29803;DHT22;16702;50.898;4.662;2023-04-24T10:26:18;11.40;99.90
29803;DHT22;16702;50.898;4.662;2023-04-24T10:28:49;11.50;99.90
29803;DHT22;16702;50.898;4.662;2023-04-24T10:31:20;11.60;99.90
29803;DHT22;16702;50.898;4.662;2023-04-24T10:33:55;11.80;99.90
29803;DHT22;16702;50.898;4.662;2023-04-24T10:36:27;11.80;99.90
29803;DHT22;16702;50.898;4.662;2023-04-24T10:39:02;11.70;99.90
29803;DHT22;16702;50.898;4.662;2023-04-24T10:41:37;11.70;99.90
29803;DHT22;16702;50.898;4.662;2023-04-24T10:44:08;11.70;99.90
29803;DHT22;16702;50.898;4.662;2023-04-24T10:46:43;11.80;99.90
29803;DHT22;16702;50.898;4.662;2023-04-24T10:49:17;11.70;99.90
29803;DHT22;16702;50.898;4.662;2023-04-24T10:52:01;11.60;99.90
29803;DHT22;16702;50.898;4.662;2023-04-24T10:54:35;11.60;99.90
29803;DHT22;16702;50.898;4.662;2023-04-24T10:57:27;11.60;99.90
29803;DHT22;16702;50.898;4.662;2023-04-24T11:00:19;11.60;99.90
29803;DHT22;16702;50.898;4.662;2023-04-24T11:02:52;11.70;99.90
29803;DHT22;16702;50.898;4.662;2023-04-24T11:08:29;11.60;99.90
29803;DHT22;16702;50.898;4.662;2023-04-24T11:11:03;11.60;99.90
29803;DHT22;16702;50.898;4.662;2023-04-24T11:14:01;11.60;99.90
29803;DHT22;16702;50.898;4.662;2023-04-24T11:16:34;11.70;99.90
29803;DHT22;16702;50.898;4.662;2023-04-24T11:19:07;11.70;99.90
29803;DHT22;16702;50.898;4.662;2023-04-24T11:21:42;11.80;99.90
29803;DHT22;16702;50.898;4.662;2023-04-24T11:24:38;12.00;99.90
29803;DHT22;16702;50.898;4.662;2023-04-24T11:27:18;12.00;99.90
29803;DHT22;16702;50.898;4.662;2023-04-24T11:29:59;11.90;99.90
29803;DHT22;16702;50.898;4.662;2023-04-24T11:32:35;12.00;99.90
29803;DHT22;16702;50.898;4.662;2023-04-24T11:35:08;12.00;99.90
29803;DHT22;16702;50.898;4.662;2023-04-24T11:37:40;12.10;99.90
29803;DHT22;16702;50.898;4.662;2023-04-24T11:40:27;12.20;99.90
29803;DHT22;16702;50.898;4.662;2023-04-24T11:43:00;12.20;99.90
29803;DHT22;16702;50.898;4.662;2023-04-24T11:45:34;12.10;99.90
29803;DHT22;16702;50.898;4.662;2023-04-24T11:48:04;12.10;99.90
29803;DHT22;16702;50.898;4.662;2023-04-24T11:50:35;12.40;99.90
29803;DHT22;16702;50.898;4.662;2023-04-24T11:53:05;12.60;99.90
29803;DHT22;16702;50.898;4.662;2023-04-24T11:55:38;12.70;99.90
29803;DHT22;16702;50.898;4.662;2023-04-24T11:58:09;12.50;99.90
29803;DHT22;16702;50.898;4.662;2023-04-24T12:00:39;12.40;99.90
29803;DHT22;16702;50.898;4.662;2023-04-24T12:03:11;12.40;99.90
29803;DHT22;16702;50.898;4.662;2023-04-24T12:05:42;12.50;99.90
29803;DHT22;16702;50.898;4.662;2023-04-24T12:08:27;12.50;99.90
29803;DHT22;16702;50.898;4.662;2023-04-24T12:11:01;12.60;99.90
29803;DHT22;16702;50.898;4.662;2023-04-24T12:13:32;12.70;99.90
29803;DHT22;16702;50.898;4.662;2023-04-24T12:16:04;12.80;99.90
29803;DHT22;16702;50.898;4.662;2023-04-24T12:18:35;13.00;99.90
29803;DHT22;16702;50.898;4.662;2023-04-24T12:21:18;12.90;99.90
29803;DHT22;16702;50.898;4.662;2023-04-24T12:23:49;12.80;99.90
29803;DHT22;16702;50.898;4.662;2023-04-24T12:26:23;13.20;99.90
29803;DHT22;16702;50.898;4.662;2023-04-24T12:28:54;13.50;99.90
29803;DHT22;16702;50.898;4.662;2023-04-24T12:31:24;13.60;99.90
29803;DHT22;16702;50.898;4.662;2023-04-24T12:33:57;13.70;99.90
29803;DHT22;16702;50.898;4.662;2023-04-24T12:36:27;13.80;99.90
29803;DHT22;16702;50.898;4.662;2023-04-24T12:38:58;13.90;99.90
29803;DHT22;16702;50.898;4.662;2023-04-24T12:41:31;13.80;99.90
29803;DHT22;16702;50.898;4.662;2023-04-24T12:44:02;13.80;99.90
29803;DHT22;16702;50.898;4.662;2023-04-24T12:46:32;13.90;99.90
29803;DHT22;16702;50.898;4.662;2023-04-24T12:49:03;14.20;99.90
29803;DHT22;16702;50.898;4.662;2023-04-24T12:51:34;14.40;99.90
29803;DHT22;16702;50.898;4.662;2023-04-24T12:54:05;14.60;99.90
29803;DHT22;16702;50.898;4.662;2023-04-24T12:56:38;14.60;99.90
29803;DHT22;16702;50.898;4.662;2023-04-24T12:59:08;14.50;99.90
29803;DHT22;16702;50.898;4.662;2023-04-24T13:01:39;14.70;99.90
29803;DHT22;16702;50.898;4.662;2023-04-24T13:04:10;14.60;99.90
29803;DHT22;16702;50.898;4.662;2023-04-24T13:06:42;14.40;99.90
29803;DHT22;16702;50.898;4.662;2023-04-24T13:09:12;14.20;99.90
29803;DHT22;16702;50.898;4.662;2023-04-24T13:11:45;13.90;99.90
29803;DHT22;16702;50.898;4.662;2023-04-24T13:14:16;14.20;99.90
29803;DHT22;16702;50.898;4.662;2023-04-24T13:16:47;14.00;99.90
29803;DHT22;16702;50.898;4.662;2023-04-24T13:19:18;14.00;99.90
29803;DHT22;16702;50.898;4.662;2023-04-24T13:21:49;13.80;99.90
29803;DHT22;16702;50.898;4.662;2023-04-24T13:24:19;14.00;99.90
29803;DHT22;16702;50.898;4.662;2023-04-24T13:26:54;13.90;99.90
29803;DHT22;16702;50.898;4.662;2023-04-24T13:29:25;13.90;99.90
29803;DHT22;16702;50.898;4.662;2023-04-24T13:31:55;13.90;99.90
29803;DHT22;16702;50.898;4.662;2023-04-24T13:34:26;14.30;99.90
29803;DHT22;16702;50.898;4.662;2023-04-24T13:36:58;14.20;99.90
29803;DHT22;16702;50.898;4.662;2023-04-24T13:39:28;14.20;99.90
29803;DHT22;16702;50.898;4.662;2023-04-24T13:42:02;13.90;99.90
29803;DHT22;16702;50.898;4.662;2023-04-24T13:44:33;13.90;99.90
29803;DHT22;16702;50.898;4.662;2023-04-24T13:47:04;14.10;99.90
29803;DHT22;16702;50.898;4.662;2023-04-24T13:49:34;14.40;99.90
29803;DHT22;16702;50.898;4.662;2023-04-24T13:52:05;14.60;99.90
29803;DHT22;16702;50.898;4.662;2023-04-24T13:54:37;14.50;99.90
29803;DHT22;16702;50.898;4.662;2023-04-24T13:57:10;14.40;99.90
29803;DHT22;16702;50.898;4.662;2023-04-24T13:59:41;14.60;99.90
29803;DHT22;16702;50.898;4.662;2023-04-24T14:02:12;14.90;99.90
29803;DHT22;16702;50.898;4.662;2023-04-24T14:04:43;14.60;99.90
29803;DHT22;16702;50.898;4.662;2023-04-24T14:07:15;14.70;99.90
29803;DHT22;16702;50.898;4.662;2023-04-24T14:09:46;14.60;99.90
29803;DHT22;16702;50.898;4.662;2023-04-24T14:12:19;14.60;99.90
29803;DHT22;16702;50.898;4.662;2023-04-24T14:14:50;14.70;99.90
29803;DHT22;16702;50.898;4.662;2023-04-24T14:17:21;14.90;99.90
29803;DHT22;16702;50.898;4.662;2023-04-24T14:19:51;15.00;99.90
29803;DHT22;16702;50.898;4.662;2023-04-24T14:22:23;15.00;99.90
29803;DHT22;16702;50.898;4.662;2023-04-24T14:24:54;15.10;99.90
29803;DHT22;16702;50.898;4.662;2023-04-24T14:27:27;15.20;99.90
29803;DHT22;16702;50.898;4.662;2023-04-24T14:29:58;15.20;99.90
29803;DHT22;16702;50.898;4.662;2023-04-24T14:32:29;15.00;99.90
29803;DHT22;16702;50.898;4.662;2023-04-24T14:34:59;15.00;99.90
29803;DHT22;16702;50.898;4.662;2023-04-24T14:37:30;14.70;99.90
29803;DHT22;16702;50.898;4.662;2023-04-24T14:40:00;14.50;99.90
29803;DHT22;16702;50.898;4.662;2023-04-24T14:42:54;14.50;99.90
29803;DHT22;16702;50.898;4.662;2023-04-24T14:45:25;14.40;99.90
29803;DHT22;16702;50.898;4.662;2023-04-24T14:47:57;14.40;99.90
29803;DHT22;16702;50.898;4.662;2023-04-24T14:50:27;14.50;99.90
29803;DHT22;16702;50.898;4.662;2023-04-24T14:52:58;14.40;99.90
29803;DHT22;16702;50.898;4.662;2023-04-24T14:55:29;14.20;99.90
29803;DHT22;16702;50.898;4.662;2023-04-24T14:58:04;14.30;99.90
29803;DHT22;16702;50.898;4.662;2023-04-24T15:00:34;14.20;99.90
29803;DHT22;16702;50.898;4.662;2023-04-24T15:03:05;14.20;99.90
29803;DHT22;16702;50.898;4.662;2023-04-24T15:05:36;14.10;99.90
29803;DHT22;16702;50.898;4.662;2023-04-24T15:08:07;14.00;99.90
29803;DHT22;16702;50.898;4.662;2023-04-24T15:10:38;14.10;99.90
29803;DHT22;16702;50.898;4.662;2023-04-24T15:13:11;14.10;99.90
29803;DHT22;16702;50.898;4.662;2023-04-24T15:15:42;14.20;99.90
29803;DHT22;16702;50.898;4.662;2023-04-24T15:18:13;14.10;99.90
29803;DHT22;16702;50.898;4.662;2023-04-24T15:20:43;13.90;99.90
29803;DHT22;16702;50.898;4.662;2023-04-24T15:23:14;13.90;99.90
29803;DHT22;16702;50.898;4.662;2023-04-24T15:25:44;13.90;99.90
29803;DHT22;16702;50.898;4.662;2023-04-24T15:28:17;13.90;99.90
29803;DHT22;16702;50.898;4.662;2023-04-24T15:30:49;14.10;99.90
29803;DHT22;16702;50.898;4.662;2023-04-24T15:33:19;13.90;99.90
29803;DHT22;16702;50.898;4.662;2023-04-24T15:35:50;13.90;99.90
29803;DHT22;16702;50.898;4.662;2023-04-24T15:38:21;14.10;99.90
29803;DHT22;16702;50.898;4.662;2023-04-24T15:40:52;14.00;99.90
29803;DHT22;16702;50.898;4.662;2023-04-24T15:43:25;13.70;99.90
29803;DHT22;16702;50.898;4.662;2023-04-24T15:45:57;13.90;99.90
29803;DHT22;16702;50.898;4.662;2023-04-24T15:48:28;13.80;99.90
29803;DHT22;16702;50.898;4.662;2023-04-24T15:50:59;13.80;99.90
29803;DHT22;16702;50.898;4.662;2023-04-24T15:53:29;13.80;99.90
29803;DHT22;16702;50.898;4.662;2023-04-24T15:56:00;13.80;99.90
29803;DHT22;16702;50.898;4.662;2023-04-24T15:58:33;13.80;99.90
29803;DHT22;16702;50.898;4.662;2023-04-24T16:01:04;13.80;99.90
29803;DHT22;16702;50.898;4.662;2023-04-24T16:03:34;13.70;99.90
29803;DHT22;16702;50.898;4.662;2023-04-24T16:06:05;13.70;99.90
29803;DHT22;16702;50.898;4.662;2023-04-24T16:08:36;13.70;99.90
29803;DHT22;16702;50.898;4.662;2023-04-24T16:11:06;13.70;99.90